createdAt,value
2018-08-27T00:00:29.881Z,4.90
2018-08-27T00:03:05.152Z,2.77
2018-08-27T00:05:40.296Z,4.10
2018-08-27T00:08:15.304Z,3.00
2018-08-27T00:10:51.576Z,7.63
2018-08-27T00:13:26.598Z,6.23
2018-08-27T00:16:02.089Z,3.10
2018-08-27T00:18:37.507Z,6.00
2018-08-27T00:21:12.581Z,4.67
2018-08-27T00:23:47.486Z,5.90
2018-08-27T00:26:22.651Z,3.50
2018-08-27T00:28:57.663Z,4.10
2018-08-27T00:31:32.752Z,5.90
2018-08-27T00:34:07.739Z,3.20
2018-08-27T00:36:42.910Z,3.30
2018-08-27T00:39:17.867Z,5.80
2018-08-27T00:41:53.165Z,3.63
2018-08-27T00:44:27.998Z,3.00
2018-08-27T00:47:03.435Z,3.13
2018-08-27T00:49:38.396Z,3.33
2018-08-27T00:52:13.406Z,3.73
2018-08-27T00:54:48.463Z,3.47
2018-08-27T00:57:23.539Z,3.53
2018-08-27T00:59:58.565Z,4.03
2018-08-27T01:02:33.626Z,3.60
2018-08-27T01:05:08.647Z,3.10
2018-08-27T01:07:43.726Z,3.23
2018-08-27T01:10:19.783Z,3.30
2018-08-27T01:13:01.306Z,3.30
2018-08-27T01:15:36.065Z,3.87
2018-08-27T01:18:11.197Z,4.93
2018-08-27T01:20:45.997Z,4.43
2018-08-27T01:23:21.158Z,4.90
2018-08-27T01:25:56.255Z,4.23
2018-08-27T01:28:31.306Z,5.40
2018-08-27T01:31:06.577Z,5.57
2018-08-27T01:33:42.368Z,4.70
2018-08-27T01:36:17.578Z,4.43
2018-08-27T01:38:52.816Z,3.50
2018-08-27T01:41:27.912Z,5.90
2018-08-27T01:44:03.479Z,4.17
2018-08-27T01:46:38.674Z,8.60
2018-08-27T01:49:13.643Z,5.50
2018-08-27T01:51:48.995Z,4.70
2018-08-27T01:54:23.883Z,5.33
2018-08-27T01:57:05.363Z,4.67
2018-08-27T01:59:40.839Z,6.43
2018-08-27T02:02:15.928Z,6.20
2018-08-27T02:04:51.509Z,6.13
2018-08-27T02:07:26.727Z,6.27
2018-08-27T02:10:02.098Z,5.10
2018-08-27T02:12:37.851Z,4.73
2018-08-27T02:15:12.922Z,7.50
2018-08-27T02:17:48.069Z,7.20
2018-08-27T02:20:23.362Z,4.80
2018-08-27T02:22:58.122Z,5.03
2018-08-27T02:25:32.881Z,6.73
2018-08-27T02:28:07.961Z,6.60
2018-08-27T02:30:42.924Z,4.90
2018-08-27T02:33:18.119Z,5.90
2018-08-27T02:35:52.933Z,6.43
2018-08-27T02:38:27.943Z,5.30
2018-08-27T02:41:03.351Z,6.90
2018-08-27T02:43:39.086Z,6.40
2018-08-27T02:46:14.073Z,5.53
2018-08-27T02:48:49.204Z,5.33
2018-08-27T02:51:24.315Z,8.70
2018-08-27T02:53:59.407Z,5.63
2018-08-27T02:56:35.001Z,5.40
2018-08-27T02:59:10.361Z,5.23
2018-08-27T03:01:45.464Z,4.90
2018-08-27T03:04:20.305Z,5.50
2018-08-27T03:07:02.684Z,5.47
2018-08-27T03:09:37.889Z,8.10
2018-08-27T03:12:13.048Z,8.20
2018-08-27T03:14:48.168Z,5.67
2018-08-27T03:17:23.546Z,5.67
2018-08-27T03:19:59.713Z,6.80
2018-08-27T03:22:35.138Z,6.23
2018-08-27T03:25:10.365Z,6.47
2018-08-27T03:27:46.319Z,6.70
2018-08-27T03:30:21.862Z,5.40
2018-08-27T03:32:56.936Z,6.27
2018-08-27T03:35:31.967Z,6.23
2018-08-27T03:38:07.507Z,8.10
2018-08-27T03:40:42.676Z,5.83
2018-08-27T03:43:18.424Z,6.43
2018-08-27T03:45:53.609Z,9.37
2018-08-27T03:48:29.884Z,6.50
2018-08-27T03:51:05.364Z,6.80
2018-08-27T03:53:41.072Z,9.23
2018-08-27T03:56:16.064Z,6.33
2018-08-27T03:58:51.568Z,6.73
2018-08-27T04:01:27.037Z,7.63
2018-08-27T04:04:02.844Z,7.10
2018-08-27T04:06:38.141Z,9.13
2018-08-27T04:09:18.293Z,12.93
2018-08-27T04:11:53.208Z,8.67
2018-08-27T04:14:28.224Z,7.13
2018-08-27T04:17:03.716Z,8.03
2018-08-27T04:19:38.611Z,11.73
2018-08-27T04:22:14.185Z,8.50
2018-08-27T04:24:49.425Z,8.60
2018-08-27T04:27:24.505Z,11.37
2018-08-27T04:29:59.751Z,9.40
2018-08-27T04:32:35.530Z,9.40
2018-08-27T04:35:10.528Z,7.90
2018-08-27T04:37:45.944Z,8.73
2018-08-27T04:40:21.041Z,7.90
2018-08-27T04:42:56.187Z,10.47
2018-08-27T04:45:31.567Z,8.27
2018-08-27T04:48:07.206Z,9.67
2018-08-27T04:50:42.205Z,9.20
2018-08-27T04:53:17.368Z,9.47
2018-08-27T04:55:53.098Z,8.50
2018-08-27T04:58:30.941Z,9.30
2018-08-27T05:01:06.148Z,10.17
2018-08-27T05:03:41.388Z,10.10
2018-08-27T05:06:16.723Z,11.17
2018-08-27T05:08:51.772Z,8.97
2018-08-27T05:11:27.617Z,8.47
2018-08-27T05:14:02.844Z,9.73
2018-08-27T05:16:37.961Z,9.90
2018-08-27T05:19:13.032Z,10.63
2018-08-27T05:21:48.404Z,9.80
2018-08-27T05:24:23.468Z,11.03
2018-08-27T05:26:58.462Z,10.57
2018-08-27T05:29:33.602Z,10.00
2018-08-27T05:32:08.472Z,11.67
2018-08-27T05:34:43.657Z,11.53
2018-08-27T05:37:19.456Z,9.40
2018-08-27T05:39:55.169Z,12.30
2018-08-27T05:42:29.909Z,13.40
2018-08-27T05:45:05.560Z,11.80
2018-08-27T05:47:41.248Z,9.50
2018-08-27T05:50:16.614Z,10.40
2018-08-27T05:52:55.361Z,9.10
2018-08-27T05:55:30.173Z,9.70
2018-08-27T05:58:05.654Z,9.57
2018-08-27T06:00:41.618Z,10.60
2018-08-27T06:03:16.372Z,11.07
2018-08-27T06:05:51.464Z,9.33
2018-08-27T06:08:26.884Z,9.77
2018-08-27T06:11:02.222Z,13.03
2018-08-27T06:13:37.603Z,9.20
2018-08-27T06:16:13.260Z,8.30
2018-08-27T06:18:49.298Z,9.90
2018-08-27T06:21:25.206Z,9.40
2018-08-27T06:24:00.394Z,8.50
2018-08-27T06:26:35.845Z,9.03
2018-08-27T06:29:10.844Z,10.13
2018-08-27T06:31:49.641Z,8.60
2018-08-27T06:34:25.392Z,8.10
2018-08-27T06:37:00.852Z,10.10
2018-08-27T06:39:37.791Z,8.40
2018-08-27T06:42:12.947Z,9.30
2018-08-27T06:44:49.309Z,8.57
2018-08-27T06:47:24.414Z,10.43
2018-08-27T06:50:00.321Z,9.10
2018-08-27T06:52:38.736Z,9.20
2018-08-27T06:55:16.371Z,7.60
2018-08-27T06:57:51.495Z,8.53
2018-08-27T07:00:26.876Z,9.10
2018-08-27T07:03:02.580Z,6.40
2018-08-27T07:05:37.957Z,5.87
2018-08-27T07:08:18.869Z,7.17
2018-08-27T07:10:54.122Z,5.77
2018-08-27T07:13:23.572Z,8.50
2018-08-27T07:15:54.134Z,6.13
2018-08-27T07:18:24.923Z,7.70
2018-08-27T07:20:54.504Z,4.87
2018-08-27T07:23:24.180Z,6.33
2018-08-27T07:25:53.899Z,8.33
2018-08-27T07:28:23.493Z,4.80
2018-08-27T07:30:53.678Z,6.17
2018-08-27T07:33:23.418Z,8.63
2018-08-27T07:35:53.189Z,4.80
2018-08-27T07:38:23.597Z,4.57
2018-08-27T07:40:53.481Z,7.83
2018-08-27T07:43:23.308Z,7.60
2018-08-27T07:45:53.388Z,6.80
2018-08-27T07:48:23.122Z,4.80
2018-08-27T07:50:52.581Z,9.60
2018-08-27T07:53:22.706Z,6.47
2018-08-27T07:55:52.341Z,12.53
2018-08-27T07:58:22.475Z,11.23
2018-08-27T08:00:53.079Z,4.63
2018-08-27T08:03:23.267Z,5.83
2018-08-27T08:05:53.625Z,5.20
2018-08-27T08:08:23.084Z,5.63
2018-08-27T08:10:52.906Z,6.10
2018-08-27T08:13:22.766Z,8.90
2018-08-27T08:15:52.618Z,8.50
2018-08-27T08:18:22.269Z,11.87
2018-08-27T08:20:51.845Z,13.23
2018-08-27T08:23:22.017Z,11.37
2018-08-27T08:25:51.780Z,9.57
2018-08-27T08:28:21.503Z,11.03
2018-08-27T08:30:51.735Z,9.53
2018-08-27T08:33:21.734Z,7.20
2018-08-27T08:35:51.894Z,22.23
2018-08-27T08:38:21.782Z,12.23
2018-08-27T08:40:53.484Z,9.30
2018-08-27T08:43:24.082Z,7.20
2018-08-27T08:45:53.805Z,8.13
2018-08-27T08:48:24.105Z,8.33
2018-08-27T08:50:54.169Z,7.37
2018-08-27T08:53:24.573Z,6.23
2018-08-27T08:55:54.566Z,10.13
2018-08-27T08:58:24.886Z,5.93
2018-08-27T09:00:54.459Z,6.13
2018-08-27T09:03:24.667Z,14.10
2018-08-27T09:05:54.913Z,9.90
2018-08-27T09:08:24.752Z,15.27
2018-08-27T09:10:55.155Z,12.30
2018-08-27T09:13:25.165Z,8.73
2018-08-27T09:15:54.855Z,7.80
2018-08-27T09:18:24.401Z,8.83
2018-08-27T09:20:54.349Z,6.70
2018-08-27T09:23:26.950Z,7.07
2018-08-27T09:25:56.543Z,5.80
2018-08-27T09:28:26.032Z,8.10
2018-08-27T09:30:56.026Z,8.17
2018-08-27T09:33:25.552Z,8.60
2018-08-27T09:35:56.037Z,8.93
2018-08-27T09:38:25.938Z,6.70
2018-08-27T09:40:55.827Z,8.23
2018-08-27T09:43:26.370Z,9.50
2018-08-27T09:45:55.839Z,8.10
2018-08-27T09:48:25.671Z,6.87
2018-08-27T09:50:55.003Z,8.37
2018-08-27T09:53:24.897Z,9.27
2018-08-27T09:55:55.548Z,8.10
2018-08-27T09:58:25.793Z,10.83
2018-08-27T10:01:01.016Z,10.57
2018-08-27T10:03:30.839Z,13.70
2018-08-27T10:06:00.748Z,10.60
2018-08-27T10:08:30.483Z,11.93
2018-08-27T10:11:00.198Z,10.50
2018-08-27T10:13:29.864Z,9.83
2018-08-27T10:15:59.883Z,9.80
2018-08-27T10:18:30.285Z,12.90
2018-08-27T10:20:59.860Z,13.80
2018-08-27T10:23:28.945Z,15.90
2018-08-27T10:25:58.009Z,14.37
2018-08-27T10:28:26.970Z,13.07
2018-08-27T10:30:56.598Z,14.90
2018-08-27T10:33:25.589Z,9.77
2018-08-27T10:35:54.764Z,8.90
2018-08-27T10:38:23.817Z,8.67
2018-08-27T10:40:53.424Z,8.77
2018-08-27T10:43:23.152Z,8.00
2018-08-27T10:45:53.494Z,14.00
2018-08-27T10:48:23.872Z,7.43
2018-08-27T10:50:53.183Z,10.70
2018-08-27T10:53:22.977Z,12.07
2018-08-27T10:55:52.767Z,8.10
2018-08-27T10:58:22.570Z,11.57
2018-08-27T11:00:52.138Z,9.87
2018-08-27T11:03:21.071Z,10.60
2018-08-27T11:05:50.312Z,11.07
2018-08-27T11:08:19.257Z,11.27
2018-08-27T11:10:48.732Z,10.50
2018-08-27T11:13:18.704Z,11.83
2018-08-27T11:15:48.775Z,9.40
2018-08-27T11:18:18.298Z,11.20
2018-08-27T11:20:48.623Z,8.47
2018-08-27T11:23:18.522Z,8.37
2018-08-27T11:25:48.240Z,10.90
2018-08-27T11:28:18.118Z,9.07
2018-08-27T11:30:47.761Z,9.13
2018-08-27T11:33:17.740Z,9.23
2018-08-27T11:35:47.764Z,8.53
2018-08-27T11:38:17.399Z,10.77
2018-08-27T11:40:47.023Z,8.60
2018-08-27T11:43:16.415Z,6.87
2018-08-27T11:45:46.362Z,9.80
2018-08-27T11:48:16.645Z,7.07
2018-08-27T11:50:46.175Z,6.80
2018-08-27T11:53:16.227Z,13.83
2018-08-27T11:55:46.091Z,12.03
2018-08-27T11:58:16.860Z,7.80
2018-08-27T12:00:53.578Z,7.83
2018-08-27T12:03:23.646Z,10.40
2018-08-27T12:05:53.450Z,10.13
2018-08-27T12:08:23.116Z,11.50
2018-08-27T12:10:52.808Z,8.13
2018-08-27T12:13:23.207Z,10.00
2018-08-27T12:15:52.908Z,12.03
2018-08-27T12:18:22.504Z,9.90
2018-08-27T12:20:52.119Z,10.57
2018-08-27T12:23:22.085Z,11.33
2018-08-27T12:25:51.699Z,14.03
2018-08-27T12:28:21.742Z,9.67
2018-08-27T12:30:51.849Z,11.47
2018-08-27T12:33:27.942Z,10.13
2018-08-27T12:36:03.282Z,9.37
2018-08-27T12:38:39.395Z,8.33
2018-08-27T12:41:14.529Z,13.53
2018-08-27T12:43:50.220Z,12.50
2018-08-27T12:46:25.244Z,8.10
2018-08-27T12:49:00.743Z,10.90
2018-08-27T12:51:36.023Z,9.60
2018-08-27T12:54:11.399Z,12.70
2018-08-27T12:56:46.752Z,8.63
2018-08-27T12:59:21.820Z,10.83
2018-08-27T13:01:56.883Z,11.50
2018-08-27T13:04:31.849Z,11.93
2018-08-27T13:07:07.588Z,13.17
2018-08-27T13:09:43.171Z,9.20
2018-08-27T13:12:18.166Z,11.73
2018-08-27T13:14:54.336Z,8.17
2018-08-27T13:17:29.980Z,9.93
2018-08-27T13:20:10.454Z,8.27
2018-08-27T13:22:52.137Z,13.17
2018-08-27T13:25:27.382Z,7.87
2018-08-27T13:28:02.841Z,15.30
2018-08-27T13:30:37.929Z,10.93
2018-08-27T13:33:13.267Z,7.03
2018-08-27T13:35:48.842Z,8.60
2018-08-27T13:38:24.630Z,14.10
2018-08-27T13:41:00.042Z,10.53
2018-08-27T13:43:35.141Z,11.40
2018-08-27T13:46:10.007Z,15.13
2018-08-27T13:48:45.657Z,17.20
2018-08-27T13:51:25.498Z,7.80
2018-08-27T13:54:00.437Z,11.20
2018-08-27T13:56:35.705Z,12.90
2018-08-27T13:59:10.834Z,9.23
2018-08-27T14:01:46.069Z,8.10
2018-08-27T14:04:21.497Z,11.83
2018-08-27T14:06:56.510Z,11.33
2018-08-27T14:09:31.905Z,10.30
2018-08-27T14:12:07.724Z,11.27
2018-08-27T14:14:43.063Z,10.40
2018-08-27T14:17:18.757Z,14.23
2018-08-27T14:19:54.480Z,10.83
2018-08-27T14:22:29.606Z,14.47
2018-08-27T14:25:05.550Z,9.70
2018-08-27T14:27:40.477Z,14.67
2018-08-27T14:30:15.437Z,9.30
2018-08-27T14:32:50.620Z,12.40
2018-08-27T14:35:25.989Z,13.27
2018-08-27T14:38:01.308Z,11.97
2018-08-27T14:40:37.126Z,11.93
2018-08-27T14:43:12.531Z,13.03
2018-08-27T14:45:41.837Z,11.33
2018-08-27T14:48:12.248Z,10.73
2018-08-27T14:50:42.664Z,13.60
2018-08-27T14:53:12.403Z,11.33
2018-08-27T14:55:41.794Z,16.93
2018-08-27T14:58:11.536Z,13.53
2018-08-27T15:00:45.349Z,11.40
2018-08-27T15:03:15.315Z,15.10
2018-08-27T15:05:45.787Z,11.20
2018-08-27T15:08:15.739Z,10.17
2018-08-27T15:10:45.023Z,7.50
2018-08-27T15:13:17.397Z,14.00
2018-08-27T15:15:48.310Z,11.07
2018-08-27T15:18:17.720Z,13.53
2018-08-27T15:20:48.448Z,9.43
2018-08-27T15:23:18.235Z,9.60
2018-08-27T15:25:48.486Z,10.47
2018-08-27T15:28:18.042Z,13.90
2018-08-27T15:30:47.663Z,11.13
2018-08-27T15:33:17.418Z,13.23
2018-08-27T15:35:47.995Z,9.40
2018-08-27T15:38:17.967Z,9.57
2018-08-27T15:40:48.358Z,16.90
2018-08-27T15:43:18.127Z,10.10
2018-08-27T15:45:53.250Z,9.63
2018-08-27T15:48:22.738Z,14.97
2018-08-27T15:50:52.436Z,10.70
2018-08-27T15:53:22.197Z,14.27
2018-08-27T15:55:51.761Z,9.73
2018-08-27T15:58:21.097Z,13.13
2018-08-27T16:00:52.107Z,14.60
2018-08-27T16:03:27.947Z,11.07
2018-08-27T16:05:57.975Z,10.53
2018-08-27T16:08:28.369Z,13.83
2018-08-27T16:10:58.573Z,13.10
2018-08-27T16:13:27.821Z,14.43
2018-08-27T16:15:57.461Z,9.97
2018-08-27T16:18:27.014Z,14.27
2018-08-27T16:20:57.389Z,8.73
2018-08-27T16:23:27.334Z,13.87
2018-08-27T16:25:57.636Z,14.23
2018-08-27T16:28:27.267Z,9.90
2018-08-27T16:30:57.197Z,11.03
2018-08-27T16:33:27.034Z,10.77
2018-08-27T16:35:56.907Z,13.50
2018-08-27T16:38:26.414Z,10.60
2018-08-27T16:40:56.037Z,13.97
2018-08-27T16:43:25.979Z,12.50
2018-08-27T16:45:56.889Z,9.90
2018-08-27T16:48:32.474Z,12.57
2018-08-27T16:51:07.483Z,14.00
2018-08-27T16:53:43.360Z,16.33
2018-08-27T16:56:18.888Z,13.27
2018-08-27T16:59:01.242Z,11.20
2018-08-27T17:01:36.389Z,17.43
2018-08-27T17:04:11.621Z,16.60
2018-08-27T17:06:54.898Z,19.53
2018-08-27T17:09:26.345Z,18.70
2018-08-27T17:12:01.695Z,13.27
2018-08-27T17:14:37.174Z,15.27
2018-08-27T17:17:13.471Z,16.30
2018-08-27T17:19:48.675Z,19.20
2018-08-27T17:22:24.079Z,18.67
2018-08-27T17:24:59.242Z,16.07
2018-08-27T17:27:34.544Z,17.93
2018-08-27T17:30:10.578Z,19.47
2018-08-27T17:32:45.898Z,16.37
2018-08-27T17:35:21.516Z,14.67
2018-08-27T17:37:56.752Z,16.20
2018-08-27T17:40:32.639Z,15.43
2018-08-27T17:43:07.734Z,15.27
2018-08-27T17:45:37.416Z,17.13
2018-08-27T17:48:12.629Z,21.20
2018-08-27T17:50:48.067Z,21.77
2018-08-27T17:53:23.263Z,23.23
2018-08-27T17:55:58.685Z,17.23
2018-08-27T17:58:34.348Z,19.23
2018-08-27T18:01:10.208Z,16.97
2018-08-27T18:03:45.384Z,19.73
2018-08-27T18:06:20.799Z,18.10
2018-08-27T18:08:56.248Z,17.37
2018-08-27T18:11:30.789Z,25.33
2018-08-27T18:14:06.826Z,18.43
2018-08-27T18:16:42.059Z,20.77
2018-08-27T18:19:17.754Z,19.60
2018-08-27T18:21:52.585Z,17.83
2018-08-27T18:24:27.853Z,19.63
2018-08-27T18:27:03.134Z,18.13
2018-08-27T18:29:38.628Z,16.83
2018-08-27T18:32:14.426Z,21.73
2018-08-27T18:34:49.645Z,23.10
2018-08-27T18:37:24.970Z,20.37
2018-08-27T18:40:01.154Z,16.93
2018-08-27T18:42:36.095Z,17.90
2018-08-27T18:45:11.310Z,17.47
2018-08-27T18:47:47.262Z,19.47
2018-08-27T18:50:22.489Z,19.57
2018-08-27T18:52:57.689Z,21.80
2018-08-27T18:55:33.894Z,23.20
2018-08-27T18:58:08.387Z,22.63
2018-08-27T19:00:45.412Z,18.97
2018-08-27T19:03:21.322Z,21.80
2018-08-27T19:05:57.595Z,16.63
2018-08-27T19:08:33.100Z,19.20
2018-08-27T19:11:08.877Z,14.67
2018-08-27T19:13:45.375Z,22.83
2018-08-27T19:16:20.444Z,21.37
2018-08-27T19:18:56.545Z,16.30
2018-08-27T19:21:32.463Z,18.63
2018-08-27T19:24:08.162Z,23.90
2018-08-27T19:26:44.230Z,20.57
2018-08-27T19:29:14.765Z,15.77
2018-08-27T19:31:50.776Z,16.47
2018-08-27T19:34:26.699Z,14.20
2018-08-27T19:37:02.726Z,14.73
2018-08-27T19:39:39.256Z,12.20
2018-08-27T19:42:15.055Z,16.27
2018-08-27T19:44:50.779Z,14.33
2018-08-27T19:47:25.952Z,17.90
2018-08-27T19:50:01.295Z,18.90
2018-08-27T19:52:36.238Z,14.97
2018-08-27T19:55:11.198Z,12.40
2018-08-27T19:57:46.902Z,13.60
2018-08-27T20:00:21.934Z,13.43
2018-08-27T20:02:57.112Z,10.40
2018-08-27T20:05:32.804Z,14.23
2018-08-27T20:08:08.225Z,12.60
2018-08-27T20:10:43.647Z,10.47
2018-08-27T20:13:12.986Z,10.40
2018-08-27T20:15:47.976Z,13.17
2018-08-27T20:18:23.246Z,14.67
2018-08-27T20:20:58.562Z,12.57
2018-08-27T20:23:33.959Z,13.43
2018-08-27T20:26:09.103Z,13.80
2018-08-27T20:28:48.976Z,11.77
2018-08-27T20:31:24.179Z,8.93
2018-08-27T20:34:00.024Z,10.03
2018-08-27T20:36:36.093Z,14.40
2018-08-27T20:39:11.664Z,11.73
2018-08-27T20:41:47.400Z,12.40
2018-08-27T20:44:17.032Z,11.57
2018-08-27T20:46:52.391Z,11.10
2018-08-27T20:49:27.519Z,10.37
2018-08-27T20:52:03.167Z,9.70
2018-08-27T20:54:40.509Z,12.00
2018-08-27T20:57:15.846Z,11.63
2018-08-27T20:59:50.963Z,10.83
2018-08-27T21:02:26.253Z,14.80
2018-08-27T21:05:01.148Z,10.23
2018-08-27T21:07:37.121Z,10.33
2018-08-27T21:10:12.062Z,9.13
2018-08-27T21:12:46.945Z,10.43
2018-08-27T21:15:22.117Z,9.63
2018-08-27T21:17:56.741Z,11.23
2018-08-27T21:20:32.420Z,10.97
2018-08-27T21:23:07.278Z,9.13
2018-08-27T21:25:42.011Z,9.90
2018-08-27T21:28:17.001Z,9.80
2018-08-27T21:30:52.867Z,10.60
2018-08-27T21:33:28.346Z,9.30
2018-08-27T21:36:03.128Z,8.40
2018-08-27T21:38:38.290Z,10.20
2018-08-27T21:41:13.803Z,8.67
2018-08-27T21:43:49.055Z,8.43
2018-08-27T21:46:24.304Z,14.00
2018-08-27T21:48:58.807Z,9.60
2018-08-27T21:51:34.046Z,10.00
2018-08-27T21:54:09.107Z,8.73
2018-08-27T21:56:44.333Z,14.33
2018-08-27T21:59:19.469Z,7.77
2018-08-27T22:01:54.234Z,8.00
2018-08-27T22:04:28.714Z,10.33
2018-08-27T22:07:03.293Z,7.87
2018-08-27T22:09:32.709Z,9.67
2018-08-27T22:12:07.517Z,11.73
2018-08-27T22:14:42.398Z,11.17
2018-08-27T22:17:16.971Z,9.27
2018-08-27T22:19:51.685Z,10.47
2018-08-27T22:22:26.391Z,10.67
2018-08-27T22:25:01.250Z,8.13
2018-08-27T22:27:36.567Z,9.83
2018-08-27T22:30:11.351Z,10.33
2018-08-27T22:32:45.768Z,8.97
2018-08-27T22:35:20.559Z,9.77
2018-08-27T22:37:55.314Z,10.10
2018-08-27T22:40:30.887Z,11.90
2018-08-27T22:43:06.797Z,10.00
2018-08-27T22:45:41.875Z,14.83
2018-08-27T22:48:17.122Z,10.67
2018-08-27T22:50:51.885Z,10.93
2018-08-27T22:53:22.167Z,8.80
2018-08-27T22:56:03.969Z,11.00
2018-08-27T22:58:39.200Z,10.87
2018-08-27T23:01:15.367Z,8.37
2018-08-27T23:04:02.299Z,10.60
2018-08-27T23:06:38.119Z,10.37
2018-08-27T23:09:13.394Z,10.37
2018-08-27T23:11:48.398Z,8.67
2018-08-27T23:14:24.215Z,10.47
2018-08-27T23:16:59.415Z,8.73
2018-08-27T23:19:34.495Z,13.10
2018-08-27T23:22:11.085Z,11.27
2018-08-27T23:24:46.423Z,11.97
2018-08-27T23:27:22.580Z,12.30
2018-08-27T23:29:57.660Z,12.73
2018-08-27T23:32:32.798Z,14.70
2018-08-27T23:35:08.984Z,9.60
2018-08-27T23:37:44.853Z,10.87
2018-08-27T23:40:20.353Z,11.50
2018-08-27T23:42:55.378Z,11.80
2018-08-27T23:45:30.802Z,9.93
2018-08-27T23:48:05.871Z,11.00
2018-08-27T23:50:41.029Z,10.07
2018-08-27T23:53:16.234Z,11.23
2018-08-27T23:55:51.372Z,15.00
2018-08-27T23:58:25.870Z,12.40
